sensor_id;sensor_type;location;lat;lon;timestamp;P1;durP1;ratioP1;P2;durP2;ratioP2
1258;SDS011;619;51.472;6.628;2024-02-21T00:02:19;14.43;;;7.20;;
1258;SDS011;619;51.472;6.628;2024-02-21T00:04:44;22.00;;;9.10;;
1258;SDS011;619;51.472;6.628;2024-02-21T00:07:12;15.23;;;8.30;;
1258;SDS011;619;51.472;6.628;2024-02-21T00:09:40;15.40;;;8.10;;
1258;SDS011;619;51.472;6.628;2024-02-21T00:12:06;17.60;;;10.73;;
1258;SDS011;619;51.472;6.628;2024-02-21T00:14:32;19.10;;;9.00;;
1258;SDS011;619;51.472;6.628;2024-02-21T00:17:00;13.83;;;8.83;;
1258;SDS011;619;51.472;6.628;2024-02-21T00:19:27;12.83;;;8.80;;
1258;SDS011;619;51.472;6.628;2024-02-21T00:21:55;13.77;;;9.23;;
1258;SDS011;619;51.472;6.628;2024-02-21T00:24:21;15.10;;;9.67;;
1258;SDS011;619;51.472;6.628;2024-02-21T00:26:46;18.00;;;9.97;;
1258;SDS011;619;51.472;6.628;2024-02-21T00:29:14;13.97;;;8.50;;
1258;SDS011;619;51.472;6.628;2024-02-21T00:31:40;13.13;;;8.30;;
1258;SDS011;619;51.472;6.628;2024-02-21T00:34:09;14.93;;;8.40;;
1258;SDS011;619;51.472;6.628;2024-02-21T00:36:38;11.37;;;7.87;;
1258;SDS011;619;51.472;6.628;2024-02-21T00:39:06;17.77;;;9.97;;
1258;SDS011;619;51.472;6.628;2024-02-21T00:41:32;14.70;;;9.47;;
1258;SDS011;619;51.472;6.628;2024-02-21T00:44:02;15.30;;;8.37;;
1258;SDS011;619;51.472;6.628;2024-02-21T00:46:31;13.40;;;9.93;;
1258;SDS011;619;51.472;6.628;2024-02-21T00:48:59;17.93;;;10.07;;
1258;SDS011;619;51.472;6.628;2024-02-21T00:51:24;13.27;;;8.73;;
1258;SDS011;619;51.472;6.628;2024-02-21T00:53:57;16.50;;;9.70;;
1258;SDS011;619;51.472;6.628;2024-02-21T00:56:22;11.17;;;8.90;;
1258;SDS011;619;51.472;6.628;2024-02-21T00:58:50;15.60;;;10.13;;
1258;SDS011;619;51.472;6.628;2024-02-21T01:01:22;15.73;;;9.00;;
1258;SDS011;619;51.472;6.628;2024-02-21T01:03:50;14.27;;;10.47;;
1258;SDS011;619;51.472;6.628;2024-02-21T01:06:18;23.37;;;9.30;;
1258;SDS011;619;51.472;6.628;2024-02-21T01:08:45;13.30;;;9.43;;
1258;SDS011;619;51.472;6.628;2024-02-21T01:11:14;14.40;;;8.47;;
1258;SDS011;619;51.472;6.628;2024-02-21T01:13:41;21.90;;;9.87;;
1258;SDS011;619;51.472;6.628;2024-02-21T01:16:11;14.60;;;9.53;;
1258;SDS011;619;51.472;6.628;2024-02-21T01:18:39;12.20;;;9.13;;
1258;SDS011;619;51.472;6.628;2024-02-21T01:21:07;11.97;;;6.97;;
1258;SDS011;619;51.472;6.628;2024-02-21T01:23:35;13.00;;;8.37;;
1258;SDS011;619;51.472;6.628;2024-02-21T01:26:04;10.87;;;7.57;;
1258;SDS011;619;51.472;6.628;2024-02-21T01:28:29;19.40;;;8.20;;
1258;SDS011;619;51.472;6.628;2024-02-21T01:30:57;14.00;;;8.00;;
1258;SDS011;619;51.472;6.628;2024-02-21T01:33:23;14.77;;;9.43;;
1258;SDS011;619;51.472;6.628;2024-02-21T01:35:48;15.47;;;8.57;;
1258;SDS011;619;51.472;6.628;2024-02-21T01:38:17;10.90;;;7.30;;
1258;SDS011;619;51.472;6.628;2024-02-21T01:40:43;9.93;;;7.73;;
1258;SDS011;619;51.472;6.628;2024-02-21T01:43:19;12.80;;;7.30;;
1258;SDS011;619;51.472;6.628;2024-02-21T01:45:48;13.23;;;8.40;;
1258;SDS011;619;51.472;6.628;2024-02-21T01:48:17;10.47;;;6.93;;
1258;SDS011;619;51.472;6.628;2024-02-21T01:50:49;8.47;;;6.30;;
1258;SDS011;619;51.472;6.628;2024-02-21T01:53:20;9.43;;;7.37;;
1258;SDS011;619;51.472;6.628;2024-02-21T01:55:48;13.03;;;7.33;;
1258;SDS011;619;51.472;6.628;2024-02-21T01:58:17;10.60;;;7.43;;
1258;SDS011;619;51.472;6.628;2024-02-21T02:00:45;9.83;;;7.20;;
1258;SDS011;619;51.472;6.628;2024-02-21T02:03:12;14.73;;;8.37;;
1258;SDS011;619;51.472;6.628;2024-02-21T02:05:42;12.27;;;6.63;;
1258;SDS011;619;51.472;6.628;2024-02-21T02:08:12;13.60;;;6.83;;
1258;SDS011;619;51.472;6.628;2024-02-21T02:10:41;12.57;;;8.80;;
1258;SDS011;619;51.472;6.628;2024-02-21T02:13:07;9.80;;;6.33;;
1258;SDS011;619;51.472;6.628;2024-02-21T02:18:05;12.93;;;7.07;;
1258;SDS011;619;51.472;6.628;2024-02-21T02:20:31;9.67;;;7.00;;
1258;SDS011;619;51.472;6.628;2024-02-21T02:22:57;11.63;;;7.37;;
1258;SDS011;619;51.472;6.628;2024-02-21T02:25:32;12.13;;;7.30;;
1258;SDS011;619;51.472;6.628;2024-02-21T02:27:57;10.43;;;6.57;;
1258;SDS011;619;51.472;6.628;2024-02-21T02:30:23;11.70;;;7.67;;
1258;SDS011;619;51.472;6.628;2024-02-21T02:32:48;11.90;;;7.70;;
1258;SDS011;619;51.472;6.628;2024-02-21T02:35:14;9.40;;;6.30;;
1258;SDS011;619;51.472;6.628;2024-02-21T02:37:47;9.47;;;7.27;;
1258;SDS011;619;51.472;6.628;2024-02-21T02:40:14;11.00;;;7.50;;
1258;SDS011;619;51.472;6.628;2024-02-21T02:42:42;13.30;;;7.07;;
1258;SDS011;619;51.472;6.628;2024-02-21T02:45:08;10.37;;;8.03;;
1258;SDS011;619;51.472;6.628;2024-02-21T02:47:34;9.77;;;6.60;;
1258;SDS011;619;51.472;6.628;2024-02-21T02:50:04;15.63;;;8.03;;
1258;SDS011;619;51.472;6.628;2024-02-21T02:52:32;9.70;;;7.80;;
1258;SDS011;619;51.472;6.628;2024-02-21T02:54:58;13.40;;;6.90;;
1258;SDS011;619;51.472;6.628;2024-02-21T02:57:26;13.00;;;7.73;;
1258;SDS011;619;51.472;6.628;2024-02-21T02:59:54;13.23;;;7.30;;
1258;SDS011;619;51.472;6.628;2024-02-21T03:02:20;8.83;;;6.23;;
1258;SDS011;619;51.472;6.628;2024-02-21T03:04:45;17.00;;;9.53;;
1258;SDS011;619;51.472;6.628;2024-02-21T03:07:14;8.53;;;7.33;;
1258;SDS011;619;51.472;6.628;2024-02-21T03:09:42;8.70;;;6.07;;
1258;SDS011;619;51.472;6.628;2024-02-21T03:12:10;15.97;;;6.13;;
1258;SDS011;619;51.472;6.628;2024-02-21T03:14:36;10.90;;;6.43;;
1258;SDS011;619;51.472;6.628;2024-02-21T03:17:02;10.20;;;6.70;;
1258;SDS011;619;51.472;6.628;2024-02-21T03:19:28;13.00;;;6.93;;
1258;SDS011;619;51.472;6.628;2024-02-21T03:21:56;9.40;;;6.23;;
1258;SDS011;619;51.472;6.628;2024-02-21T03:24:22;13.33;;;6.00;;
1258;SDS011;619;51.472;6.628;2024-02-21T03:26:50;8.60;;;6.00;;
1258;SDS011;619;51.472;6.628;2024-02-21T03:29:18;7.33;;;5.27;;
1258;SDS011;619;51.472;6.628;2024-02-21T03:31:46;7.23;;;5.47;;
1258;SDS011;619;51.472;6.628;2024-02-21T03:34:11;9.33;;;5.67;;
1258;SDS011;619;51.472;6.628;2024-02-21T03:36:39;8.37;;;5.70;;
1258;SDS011;619;51.472;6.628;2024-02-21T03:39:07;9.30;;;5.97;;
1258;SDS011;619;51.472;6.628;2024-02-21T03:41:38;8.07;;;5.70;;
1258;SDS011;619;51.472;6.628;2024-02-21T03:44:03;6.63;;;5.03;;
1258;SDS011;619;51.472;6.628;2024-02-21T03:46:31;8.00;;;5.60;;
1258;SDS011;619;51.472;6.628;2024-02-21T03:48:59;9.17;;;5.40;;
1258;SDS011;619;51.472;6.628;2024-02-21T03:51:25;8.33;;;5.57;;
1258;SDS011;619;51.472;6.628;2024-02-21T03:53:51;10.13;;;5.87;;
1258;SDS011;619;51.472;6.628;2024-02-21T03:56:17;11.87;;;6.10;;
1258;SDS011;619;51.472;6.628;2024-02-21T03:58:42;8.83;;;6.30;;
1258;SDS011;619;51.472;6.628;2024-02-21T04:01:08;9.60;;;6.37;;
1258;SDS011;619;51.472;6.628;2024-02-21T04:03:37;13.70;;;5.73;;
1258;SDS011;619;51.472;6.628;2024-02-21T04:06:05;8.77;;;4.97;;
1258;SDS011;619;51.472;6.628;2024-02-21T04:08:31;10.40;;;6.40;;
1258;SDS011;619;51.472;6.628;2024-02-21T04:10:58;10.40;;;7.30;;
1258;SDS011;619;51.472;6.628;2024-02-21T04:13:26;10.30;;;6.33;;
1258;SDS011;619;51.472;6.628;2024-02-21T04:15:52;15.57;;;5.90;;
1258;SDS011;619;51.472;6.628;2024-02-21T04:18:18;9.60;;;5.93;;
1258;SDS011;619;51.472;6.628;2024-02-21T04:20:43;9.50;;;5.60;;
1258;SDS011;619;51.472;6.628;2024-02-21T04:23:11;10.30;;;5.50;;
1258;SDS011;619;51.472;6.628;2024-02-21T04:25:39;10.03;;;6.10;;
1258;SDS011;619;51.472;6.628;2024-02-21T04:28:05;8.97;;;6.27;;
1258;SDS011;619;51.472;6.628;2024-02-21T04:30:33;6.90;;;5.33;;
1258;SDS011;619;51.472;6.628;2024-02-21T04:32:58;7.97;;;5.10;;
1258;SDS011;619;51.472;6.628;2024-02-21T04:35:24;8.87;;;5.50;;
1258;SDS011;619;51.472;6.628;2024-02-21T04:37:49;7.63;;;5.87;;
1258;SDS011;619;51.472;6.628;2024-02-21T04:40:17;7.00;;;4.63;;
1258;SDS011;619;51.472;6.628;2024-02-21T04:42:45;7.90;;;5.20;;
1258;SDS011;619;51.472;6.628;2024-02-21T04:45:11;12.90;;;6.47;;
1258;SDS011;619;51.472;6.628;2024-02-21T04:47:36;6.27;;;4.50;;
1258;SDS011;619;51.472;6.628;2024-02-21T04:50:05;6.83;;;4.70;;
1258;SDS011;619;51.472;6.628;2024-02-21T04:52:31;15.00;;;4.73;;
1258;SDS011;619;51.472;6.628;2024-02-21T04:54:59;7.27;;;4.47;;
1258;SDS011;619;51.472;6.628;2024-02-21T04:57:24;5.20;;;4.57;;
1258;SDS011;619;51.472;6.628;2024-02-21T04:59:50;5.60;;;3.90;;
1258;SDS011;619;51.472;6.628;2024-02-21T05:02:15;12.40;;;6.27;;
1258;SDS011;619;51.472;6.628;2024-02-21T05:04:44;7.10;;;3.93;;
1258;SDS011;619;51.472;6.628;2024-02-21T05:07:12;6.90;;;4.00;;
1258;SDS011;619;51.472;6.628;2024-02-21T05:09:38;7.73;;;4.70;;
1258;SDS011;619;51.472;6.628;2024-02-21T05:12:03;6.90;;;4.50;;
1258;SDS011;619;51.472;6.628;2024-02-21T05:14:29;7.87;;;4.23;;
1258;SDS011;619;51.472;6.628;2024-02-21T05:16:57;7.57;;;4.00;;
1258;SDS011;619;51.472;6.628;2024-02-21T05:19:27;5.73;;;4.40;;
1258;SDS011;619;51.472;6.628;2024-02-21T05:21:53;7.20;;;4.30;;
1258;SDS011;619;51.472;6.628;2024-02-21T05:24:21;7.37;;;5.00;;
1258;SDS011;619;51.472;6.628;2024-02-21T05:26:46;9.23;;;4.20;;
1258;SDS011;619;51.472;6.628;2024-02-21T05:29:12;6.70;;;4.53;;
1258;SDS011;619;51.472;6.628;2024-02-21T05:34:15;8.90;;;5.10;;
1258;SDS011;619;51.472;6.628;2024-02-21T05:36:41;7.50;;;4.60;;
1258;SDS011;619;51.472;6.628;2024-02-21T05:39:09;7.90;;;4.10;;
1258;SDS011;619;51.472;6.628;2024-02-21T05:41:35;6.70;;;4.70;;
1258;SDS011;619;51.472;6.628;2024-02-21T05:44:03;6.37;;;4.50;;
1258;SDS011;619;51.472;6.628;2024-02-21T05:46:32;6.07;;;3.70;;
1258;SDS011;619;51.472;6.628;2024-02-21T05:48:57;6.10;;;4.80;;
1258;SDS011;619;51.472;6.628;2024-02-21T05:51:25;5.50;;;4.50;;
1258;SDS011;619;51.472;6.628;2024-02-21T05:53:50;7.20;;;4.70;;
1258;SDS011;619;51.472;6.628;2024-02-21T05:56:16;5.80;;;3.70;;
1258;SDS011;619;51.472;6.628;2024-02-21T05:58:43;8.63;;;4.23;;
1258;SDS011;619;51.472;6.628;2024-02-21T06:01:09;8.40;;;4.30;;
1258;SDS011;619;51.472;6.628;2024-02-21T06:03:34;6.80;;;4.23;;
1258;SDS011;619;51.472;6.628;2024-02-21T06:06:03;6.97;;;4.80;;
1258;SDS011;619;51.472;6.628;2024-02-21T06:08:30;5.87;;;3.67;;
1258;SDS011;619;51.472;6.628;2024-02-21T06:10:57;6.70;;;4.53;;
1258;SDS011;619;51.472;6.628;2024-02-21T06:13:23;9.53;;;5.70;;
1258;SDS011;619;51.472;6.628;2024-02-21T06:15:51;6.67;;;4.80;;
1258;SDS011;619;51.472;6.628;2024-02-21T06:18:19;8.13;;;4.60;;
1258;SDS011;619;51.472;6.628;2024-02-21T06:20:45;5.27;;;3.83;;
1258;SDS011;619;51.472;6.628;2024-02-21T06:23:15;5.90;;;4.40;;
1258;SDS011;619;51.472;6.628;2024-02-21T06:25:41;8.83;;;4.97;;
1258;SDS011;619;51.472;6.628;2024-02-21T06:28:11;7.80;;;4.30;;
1258;SDS011;619;51.472;6.628;2024-02-21T06:30:39;9.87;;;5.90;;
1258;SDS011;619;51.472;6.628;2024-02-21T06:33:07;9.87;;;6.13;;
1258;SDS011;619;51.472;6.628;2024-02-21T06:35:33;7.60;;;4.93;;
1258;SDS011;619;51.472;6.628;2024-02-21T06:37:59;5.77;;;4.60;;
1258;SDS011;619;51.472;6.628;2024-02-21T06:40:24;6.70;;;4.80;;
1258;SDS011;619;51.472;6.628;2024-02-21T06:42:52;9.07;;;5.90;;
1258;SDS011;619;51.472;6.628;2024-02-21T06:45:18;8.00;;;4.77;;
1258;SDS011;619;51.472;6.628;2024-02-21T06:47:46;7.37;;;4.73;;
1258;SDS011;619;51.472;6.628;2024-02-21T06:50:15;7.23;;;4.70;;
1258;SDS011;619;51.472;6.628;2024-02-21T06:52:41;7.50;;;4.37;;
1258;SDS011;619;51.472;6.628;2024-02-21T06:55:06;11.53;;;4.70;;
1258;SDS011;619;51.472;6.628;2024-02-21T06:57:32;9.67;;;5.40;;
1258;SDS011;619;51.472;6.628;2024-02-21T06:59:58;9.00;;;4.90;;
1258;SDS011;619;51.472;6.628;2024-02-21T07:02:26;8.27;;;4.90;;
1258;SDS011;619;51.472;6.628;2024-02-21T07:04:54;8.47;;;4.90;;
1258;SDS011;619;51.472;6.628;2024-02-21T07:07:19;8.10;;;4.70;;
1258;SDS011;619;51.472;6.628;2024-02-21T07:09:45;6.43;;;4.40;;
1258;SDS011;619;51.472;6.628;2024-02-21T07:12:15;8.10;;;5.60;;
1258;SDS011;619;51.472;6.628;2024-02-21T07:14:44;11.67;;;5.13;;
1258;SDS011;619;51.472;6.628;2024-02-21T07:17:10;8.70;;;4.80;;
1258;SDS011;619;51.472;6.628;2024-02-21T07:19:38;5.50;;;3.87;;
1258;SDS011;619;51.472;6.628;2024-02-21T07:22:05;8.70;;;5.00;;
1258;SDS011;619;51.472;6.628;2024-02-21T07:24:31;8.43;;;4.30;;
1258;SDS011;619;51.472;6.628;2024-02-21T07:26:57;8.10;;;4.20;;
1258;SDS011;619;51.472;6.628;2024-02-21T07:29:31;9.20;;;4.23;;
1258;SDS011;619;51.472;6.628;2024-02-21T07:31:57;4.83;;;3.60;;
1258;SDS011;619;51.472;6.628;2024-02-21T07:34:25;6.83;;;4.50;;
1258;SDS011;619;51.472;6.628;2024-02-21T07:36:53;7.93;;;5.80;;
1258;SDS011;619;51.472;6.628;2024-02-21T07:39:18;6.73;;;4.77;;
1258;SDS011;619;51.472;6.628;2024-02-21T07:41:44;10.13;;;5.83;;
1258;SDS011;619;51.472;6.628;2024-02-21T07:44:11;4.90;;;3.63;;
1258;SDS011;619;51.472;6.628;2024-02-21T07:46:36;6.80;;;5.17;;
1258;SDS011;619;51.472;6.628;2024-02-21T07:49:02;7.37;;;4.30;;
1258;SDS011;619;51.472;6.628;2024-02-21T07:51:30;5.70;;;4.20;;
1258;SDS011;619;51.472;6.628;2024-02-21T07:54:00;5.77;;;4.27;;
1258;SDS011;619;51.472;6.628;2024-02-21T07:56:27;6.80;;;4.23;;
1258;SDS011;619;51.472;6.628;2024-02-21T07:58:55;6.07;;;3.93;;
1258;SDS011;619;51.472;6.628;2024-02-21T08:01:20;8.50;;;5.13;;
1258;SDS011;619;51.472;6.628;2024-02-21T08:03:46;7.40;;;4.67;;
1258;SDS011;619;51.472;6.628;2024-02-21T08:06:14;6.50;;;4.40;;
1258;SDS011;619;51.472;6.628;2024-02-21T08:08:42;7.87;;;4.20;;
1258;SDS011;619;51.472;6.628;2024-02-21T08:11:10;7.17;;;3.77;;
1258;SDS011;619;51.472;6.628;2024-02-21T08:13:36;5.20;;;3.80;;
1258;SDS011;619;51.472;6.628;2024-02-21T08:16:01;8.13;;;3.90;;
1258;SDS011;619;51.472;6.628;2024-02-21T08:18:29;3.93;;;3.23;;
1258;SDS011;619;51.472;6.628;2024-02-21T08:21:01;11.77;;;3.67;;
1258;SDS011;619;51.472;6.628;2024-02-21T08:23:29;3.90;;;3.00;;
1258;SDS011;619;51.472;6.628;2024-02-21T08:25:56;5.53;;;3.20;;
1258;SDS011;619;51.472;6.628;2024-02-21T08:28:27;9.40;;;5.50;;
1258;SDS011;619;51.472;6.628;2024-02-21T08:30:52;6.07;;;3.90;;
1258;SDS011;619;51.472;6.628;2024-02-21T08:33:18;4.13;;;2.87;;
1258;SDS011;619;51.472;6.628;2024-02-21T08:35:43;5.13;;;3.47;;
1258;SDS011;619;51.472;6.628;2024-02-21T08:38:14;7.53;;;4.83;;
1258;SDS011;619;51.472;6.628;2024-02-21T08:40:39;8.63;;;3.53;;
1258;SDS011;619;51.472;6.628;2024-02-21T08:43:07;4.57;;;3.40;;
1258;SDS011;619;51.472;6.628;2024-02-21T08:45:33;6.97;;;4.10;;
1258;SDS011;619;51.472;6.628;2024-02-21T08:47:58;7.47;;;4.03;;
1258;SDS011;619;51.472;6.628;2024-02-21T08:50:26;7.00;;;4.13;;
1258;SDS011;619;51.472;6.628;2024-02-21T08:52:54;7.30;;;4.30;;
1258;SDS011;619;51.472;6.628;2024-02-21T08:55:25;6.50;;;4.00;;
1258;SDS011;619;51.472;6.628;2024-02-21T08:57:50;7.43;;;4.03;;
1258;SDS011;619;51.472;6.628;2024-02-21T09:00:18;4.40;;;3.00;;
1258;SDS011;619;51.472;6.628;2024-02-21T09:02:51;6.37;;;5.30;;
1258;SDS011;619;51.472;6.628;2024-02-21T09:05:23;4.17;;;3.80;;
1258;SDS011;619;51.472;6.628;2024-02-21T09:07:49;5.10;;;3.00;;
1258;SDS011;619;51.472;6.628;2024-02-21T09:10:15;4.30;;;3.90;;
1258;SDS011;619;51.472;6.628;2024-02-21T09:12:43;5.63;;;3.27;;
1258;SDS011;619;51.472;6.628;2024-02-21T09:15:11;7.37;;;3.70;;
1258;SDS011;619;51.472;6.628;2024-02-21T09:17:37;4.83;;;3.10;;
1258;SDS011;619;51.472;6.628;2024-02-21T09:20:04;4.90;;;3.43;;
1258;SDS011;619;51.472;6.628;2024-02-21T09:22:36;5.10;;;3.43;;
1258;SDS011;619;51.472;6.628;2024-02-21T09:25:04;3.00;;;2.60;;
1258;SDS011;619;51.472;6.628;2024-02-21T09:27:37;6.23;;;2.77;;
1258;SDS011;619;51.472;6.628;2024-02-21T09:30:05;4.90;;;3.17;;
1258;SDS011;619;51.472;6.628;2024-02-21T09:32:34;6.63;;;4.20;;
1258;SDS011;619;51.472;6.628;2024-02-21T09:35:01;4.30;;;2.87;;
1258;SDS011;619;51.472;6.628;2024-02-21T09:37:26;9.10;;;3.33;;
1258;SDS011;619;51.472;6.628;2024-02-21T09:39:59;5.97;;;3.70;;
1258;SDS011;619;51.472;6.628;2024-02-21T09:42:37;10.03;;;3.70;;
1258;SDS011;619;51.472;6.628;2024-02-21T09:45:23;3.80;;;3.37;;
1258;SDS011;619;51.472;6.628;2024-02-21T09:50:23;5.87;;;3.90;;
1258;SDS011;619;51.472;6.628;2024-02-21T09:52:53;5.27;;;3.50;;
1258;SDS011;619;51.472;6.628;2024-02-21T09:55:23;5.17;;;3.10;;
1258;SDS011;619;51.472;6.628;2024-02-21T09:57:54;5.93;;;3.27;;
1258;SDS011;619;51.472;6.628;2024-02-21T10:00:21;7.03;;;3.53;;
1258;SDS011;619;51.472;6.628;2024-02-21T10:02:49;4.70;;;3.07;;
1258;SDS011;619;51.472;6.628;2024-02-21T10:05:15;4.77;;;3.07;;
1258;SDS011;619;51.472;6.628;2024-02-21T10:07:46;7.77;;;2.70;;
1258;SDS011;619;51.472;6.628;2024-02-21T10:10:16;6.03;;;2.70;;
1258;SDS011;619;51.472;6.628;2024-02-21T10:12:52;5.63;;;3.00;;
1258;SDS011;619;51.472;6.628;2024-02-21T10:15:24;7.33;;;3.40;;
1258;SDS011;619;51.472;6.628;2024-02-21T10:17:58;5.93;;;2.57;;
1258;SDS011;619;51.472;6.628;2024-02-21T10:20:29;7.90;;;3.87;;
1258;SDS011;619;51.472;6.628;2024-02-21T10:23:04;4.30;;;3.07;;
1258;SDS011;619;51.472;6.628;2024-02-21T10:25:34;4.90;;;2.50;;
1258;SDS011;619;51.472;6.628;2024-02-21T10:28:03;4.23;;;3.23;;
1258;SDS011;619;51.472;6.628;2024-02-21T10:30:29;4.70;;;3.10;;
1258;SDS011;619;51.472;6.628;2024-02-21T10:32:59;4.00;;;2.47;;
1258;SDS011;619;51.472;6.628;2024-02-21T10:35:31;6.03;;;3.00;;
1258;SDS011;619;51.472;6.628;2024-02-21T10:38:04;4.90;;;2.40;;
1258;SDS011;619;51.472;6.628;2024-02-21T10:40:34;4.10;;;2.23;;
1258;SDS011;619;51.472;6.628;2024-02-21T10:43:00;4.90;;;2.70;;
1258;SDS011;619;51.472;6.628;2024-02-21T10:45:31;5.23;;;2.07;;
1258;SDS011;619;51.472;6.628;2024-02-21T10:48:22;3.60;;;2.33;;
1258;SDS011;619;51.472;6.628;2024-02-21T10:50:56;3.27;;;2.50;;
1258;SDS011;619;51.472;6.628;2024-02-21T10:53:35;8.43;;;3.57;;
1258;SDS011;619;51.472;6.628;2024-02-21T10:56:22;3.53;;;2.47;;
1258;SDS011;619;51.472;6.628;2024-02-21T10:58:50;5.27;;;2.67;;
1258;SDS011;619;51.472;6.628;2024-02-21T11:01:18;3.63;;;1.67;;
1258;SDS011;619;51.472;6.628;2024-02-21T11:03:46;3.37;;;1.93;;
1258;SDS011;619;51.472;6.628;2024-02-21T11:06:18;3.17;;;2.83;;
1258;SDS011;619;51.472;6.628;2024-02-21T11:08:45;3.50;;;2.50;;
1258;SDS011;619;51.472;6.628;2024-02-21T11:11:13;3.50;;;2.50;;
1258;SDS011;619;51.472;6.628;2024-02-21T11:13:44;3.20;;;2.13;;
1258;SDS011;619;51.472;6.628;2024-02-21T11:16:21;6.57;;;2.97;;
1258;SDS011;619;51.472;6.628;2024-02-21T11:18:52;5.73;;;2.90;;
1258;SDS011;619;51.472;6.628;2024-02-21T11:21:35;4.30;;;2.97;;
1258;SDS011;619;51.472;6.628;2024-02-21T11:24:03;4.70;;;2.00;;
1258;SDS011;619;51.472;6.628;2024-02-21T11:26:29;3.90;;;2.33;;
1258;SDS011;619;51.472;6.628;2024-02-21T11:28:57;4.07;;;2.20;;
1258;SDS011;619;51.472;6.628;2024-02-21T11:31:41;10.00;;;2.50;;
1258;SDS011;619;51.472;6.628;2024-02-21T11:34:16;2.83;;;1.80;;
1258;SDS011;619;51.472;6.628;2024-02-21T11:36:49;6.50;;;3.50;;
1258;SDS011;619;51.472;6.628;2024-02-21T11:39:24;4.70;;;2.67;;
1258;SDS011;619;51.472;6.628;2024-02-21T11:42:02;3.90;;;2.93;;
1258;SDS011;619;51.472;6.628;2024-02-21T11:44:38;3.00;;;2.27;;
1258;SDS011;619;51.472;6.628;2024-02-21T11:47:07;5.33;;;3.03;;
1258;SDS011;619;51.472;6.628;2024-02-21T11:49:43;4.90;;;2.73;;
1258;SDS011;619;51.472;6.628;2024-02-21T11:52:15;4.50;;;2.50;;
1258;SDS011;619;51.472;6.628;2024-02-21T11:54:45;6.83;;;2.63;;
1258;SDS011;619;51.472;6.628;2024-02-21T11:57:13;2.93;;;1.90;;
1258;SDS011;619;51.472;6.628;2024-02-21T11:59:41;4.53;;;2.70;;
1258;SDS011;619;51.472;6.628;2024-02-21T12:02:09;6.70;;;3.30;;
1258;SDS011;619;51.472;6.628;2024-02-21T12:04:35;6.30;;;2.30;;
1258;SDS011;619;51.472;6.628;2024-02-21T12:07:04;2.60;;;2.20;;
1258;SDS011;619;51.472;6.628;2024-02-21T12:09:33;3.67;;;2.73;;
1258;SDS011;619;51.472;6.628;2024-02-21T12:12:01;3.30;;;2.13;;
1258;SDS011;619;51.472;6.628;2024-02-21T12:14:33;3.07;;;2.67;;
1258;SDS011;619;51.472;6.628;2024-02-21T12:17:03;5.43;;;2.60;;
1258;SDS011;619;51.472;6.628;2024-02-21T12:19:35;3.40;;;2.13;;
1258;SDS011;619;51.472;6.628;2024-02-21T12:22:04;6.13;;;2.57;;
1258;SDS011;619;51.472;6.628;2024-02-21T12:24:33;8.67;;;2.53;;
1258;SDS011;619;51.472;6.628;2024-02-21T12:27:03;3.07;;;1.87;;
1258;SDS011;619;51.472;6.628;2024-02-21T12:29:28;3.00;;;2.07;;
1258;SDS011;619;51.472;6.628;2024-02-21T12:31:55;4.93;;;2.07;;
1258;SDS011;619;51.472;6.628;2024-02-21T12:34:20;12.73;;;3.67;;
1258;SDS011;619;51.472;6.628;2024-02-21T12:36:47;5.90;;;3.13;;
1258;SDS011;619;51.472;6.628;2024-02-21T12:39:13;5.97;;;2.77;;
1258;SDS011;619;51.472;6.628;2024-02-21T12:41:39;4.60;;;2.40;;
1258;SDS011;619;51.472;6.628;2024-02-21T12:44:11;4.50;;;2.63;;
1258;SDS011;619;51.472;6.628;2024-02-21T12:46:41;5.77;;;2.70;;
1258;SDS011;619;51.472;6.628;2024-02-21T12:49:07;3.57;;;2.70;;
1258;SDS011;619;51.472;6.628;2024-02-21T12:51:33;5.27;;;2.80;;
1258;SDS011;619;51.472;6.628;2024-02-21T12:53:59;5.00;;;2.90;;
1258;SDS011;619;51.472;6.628;2024-02-21T12:56:36;4.70;;;2.80;;
1258;SDS011;619;51.472;6.628;2024-02-21T12:59:07;3.63;;;2.67;;
1258;SDS011;619;51.472;6.628;2024-02-21T13:01:34;5.57;;;2.53;;
1258;SDS011;619;51.472;6.628;2024-02-21T13:04:03;3.33;;;2.73;;
1258;SDS011;619;51.472;6.628;2024-02-21T13:06:28;3.37;;;2.63;;
1258;SDS011;619;51.472;6.628;2024-02-21T13:08:54;5.07;;;2.57;;
1258;SDS011;619;51.472;6.628;2024-02-21T13:11:19;3.60;;;2.30;;
1258;SDS011;619;51.472;6.628;2024-02-21T13:13:45;2.97;;;2.37;;
1258;SDS011;619;51.472;6.628;2024-02-21T13:16:19;5.10;;;2.87;;
1258;SDS011;619;51.472;6.628;2024-02-21T13:18:47;4.90;;;2.27;;
1258;SDS011;619;51.472;6.628;2024-02-21T13:21:15;2.87;;;2.33;;
1258;SDS011;619;51.472;6.628;2024-02-21T13:23:41;4.77;;;2.20;;
1258;SDS011;619;51.472;6.628;2024-02-21T13:26:09;3.67;;;2.40;;
1258;SDS011;619;51.472;6.628;2024-02-21T13:28:35;4.23;;;2.90;;
1258;SDS011;619;51.472;6.628;2024-02-21T13:31:05;4.37;;;2.77;;
1258;SDS011;619;51.472;6.628;2024-02-21T13:33:30;3.70;;;2.40;;
1258;SDS011;619;51.472;6.628;2024-02-21T13:35:58;4.23;;;2.47;;
1258;SDS011;619;51.472;6.628;2024-02-21T13:38:24;4.63;;;2.70;;
1258;SDS011;619;51.472;6.628;2024-02-21T13:40:53;2.47;;;2.17;;
1258;SDS011;619;51.472;6.628;2024-02-21T13:43:19;3.67;;;2.47;;
1258;SDS011;619;51.472;6.628;2024-02-21T13:45:55;3.67;;;2.00;;
1258;SDS011;619;51.472;6.628;2024-02-21T13:48:25;4.73;;;2.17;;
1258;SDS011;619;51.472;6.628;2024-02-21T13:50:56;5.40;;;2.40;;
1258;SDS011;619;51.472;6.628;2024-02-21T13:53:24;6.60;;;3.00;;
1258;SDS011;619;51.472;6.628;2024-02-21T13:55:50;7.37;;;2.87;;
1258;SDS011;619;51.472;6.628;2024-02-21T13:58:18;2.80;;;1.83;;
1258;SDS011;619;51.472;6.628;2024-02-21T14:00:43;7.37;;;3.07;;
1258;SDS011;619;51.472;6.628;2024-02-21T14:03:09;5.83;;;2.20;;
1258;SDS011;619;51.472;6.628;2024-02-21T14:05:38;8.60;;;2.67;;
1258;SDS011;619;51.472;6.628;2024-02-21T14:08:06;8.50;;;2.50;;
1258;SDS011;619;51.472;6.628;2024-02-21T14:10:32;3.73;;;2.70;;
1258;SDS011;619;51.472;6.628;2024-02-21T14:13:00;5.60;;;2.90;;
1258;SDS011;619;51.472;6.628;2024-02-21T14:15:26;4.23;;;2.50;;
1258;SDS011;619;51.472;6.628;2024-02-21T14:17:57;4.10;;;2.40;;
1258;SDS011;619;51.472;6.628;2024-02-21T14:20:22;5.67;;;2.23;;
1258;SDS011;619;51.472;6.628;2024-02-21T14:22:48;3.40;;;2.10;;
1258;SDS011;619;51.472;6.628;2024-02-21T14:25:13;5.90;;;2.83;;
1258;SDS011;619;51.472;6.628;2024-02-21T14:27:40;6.80;;;3.13;;
1258;SDS011;619;51.472;6.628;2024-02-21T14:30:06;5.50;;;1.80;;
1258;SDS011;619;51.472;6.628;2024-02-21T14:32:38;6.73;;;3.17;;
1258;SDS011;619;51.472;6.628;2024-02-21T14:35:10;5.90;;;3.10;;
1258;SDS011;619;51.472;6.628;2024-02-21T14:37:36;3.70;;;2.67;;
1258;SDS011;619;51.472;6.628;2024-02-21T14:40:04;3.83;;;2.70;;
1258;SDS011;619;51.472;6.628;2024-02-21T14:42:30;3.50;;;1.93;;
1258;SDS011;619;51.472;6.628;2024-02-21T14:44:59;7.17;;;2.30;;
1258;SDS011;619;51.472;6.628;2024-02-21T14:47:29;4.83;;;2.70;;
1258;SDS011;619;51.472;6.628;2024-02-21T14:49:58;4.60;;;2.40;;
1258;SDS011;619;51.472;6.628;2024-02-21T14:52:24;5.73;;;2.70;;
1258;SDS011;619;51.472;6.628;2024-02-21T14:54:50;3.53;;;1.93;;
1258;SDS011;619;51.472;6.628;2024-02-21T14:57:17;5.87;;;2.87;;
1258;SDS011;619;51.472;6.628;2024-02-21T14:59:45;5.87;;;2.30;;
1258;SDS011;619;51.472;6.628;2024-02-21T15:02:11;6.57;;;3.37;;
1258;SDS011;619;51.472;6.628;2024-02-21T15:04:39;2.83;;;1.97;;
1258;SDS011;619;51.472;6.628;2024-02-21T15:07:04;4.07;;;2.70;;
1258;SDS011;619;51.472;6.628;2024-02-21T15:09:32;5.40;;;2.97;;
1258;SDS011;619;51.472;6.628;2024-02-21T15:12:00;3.40;;;2.20;;
1258;SDS011;619;51.472;6.628;2024-02-21T15:14:31;6.30;;;2.73;;
1258;SDS011;619;51.472;6.628;2024-02-21T15:17:01;5.30;;;2.20;;
1258;SDS011;619;51.472;6.628;2024-02-21T15:19:27;9.13;;;2.80;;
1258;SDS011;619;51.472;6.628;2024-02-21T15:21:57;4.80;;;2.83;;
1258;SDS011;619;51.472;6.628;2024-02-21T15:24:27;3.47;;;2.40;;
1258;SDS011;619;51.472;6.628;2024-02-21T15:26:53;6.30;;;3.47;;
1258;SDS011;619;51.472;6.628;2024-02-21T15:29:19;5.93;;;2.10;;
1258;SDS011;619;51.472;6.628;2024-02-21T15:31:48;3.40;;;2.10;;
1258;SDS011;619;51.472;6.628;2024-02-21T15:34:20;5.80;;;2.43;;
1258;SDS011;619;51.472;6.628;2024-02-21T15:36:48;7.00;;;2.97;;
1258;SDS011;619;51.472;6.628;2024-02-21T15:39:13;5.70;;;2.47;;
1258;SDS011;619;51.472;6.628;2024-02-21T15:41:39;5.27;;;2.60;;